Rosebud, MT

10:39 AM MST on January 25, 2015 (GMT -0700)
MesoWest Sweeney Creek I-94 MP 112.6 MT US MT DOT | Change Station
CLOSE
Current Station
Personal Weather Station
Location: Hathaway, MT
Elevation: 2598 ft
Nearby Weather Stations

Elev 2598 ft 46.27 °N, 106.31 °W | Updated 1 hour ago

Overcast
Overcast
42.0 °F
Feels Like 39 °F
N
5.0
Wind Variable Wind from West
Gusts 8.0 mph

Today
High -- | Low -- °F
--% Chance of Precip.
Yesterday
High -- | Low -- °F
Precip. -- in
7:36 AM 4:59 PM
Waxing Crescent, 34% visible
Pressure 30.03 in
Visibility 10.0 miles
Clouds Overcast 8500 ft
Windchill 39 °F
Dew Point 34.0 °F
Humidity 75%
Rainfall 0.00 in
Snow Depth Not available.
UV 0 out of 12
Pollen .10 out of 12
Air Quality Not available.
Flu Activity Not available.
METAR KMLS 251653Z AUTO 16009KT 10SM OVC085 02/M02 A2997 RMK AO2 SLP168 T00171017

More Conditions Fewer Conditions

Pressure 30.03 in
Visibility 10.0 miles
Clouds Overcast 8500 ft
Windchill 39 °F
Dew Point 34.0 °F
Humidity 75%
Rainfall 0.00 in
Snow Depth Not available.
UV 0 out of 12
Pollen .10 out of 12
Air Quality Not available.
Flu Activity Not available.
METAR KMLS 251653Z AUTO 16009KT 10SM OVC085 02/M02 A2997 RMK AO2 SLP168 T00171017

More Conditions Fewer Conditions

10-Day Weather Forecast

Almanac

Astronomy

Jan. 25, 2015 Rise Set
Actual Time
Civil Twilight
Nautical Twilight
Astronomical Twilight
Moon
Length of Visible Light
Length of Day
Tomorrow will be .
, % of the Moon is Illuminated

Today's Extremes

State Highs State Lows

Community

WunderPhotos

Upload Photos

1,790,001 photos uploaded!

WunderBlogs® & News

Nearby

Air Quality

  Air Quality AQ Index Pollutant
Not available.

Snow Depth

Station Depth Elevation

Earthquake Activity

City Distance Mag. Time & Date
Minimum magnitude displayed is 2.5.

Coastal Water Temperatures

Place Temperature

Nearby Weather Stations